5°C
Gosport, Hampshire, United Kingdom
Language:  English
Updated19/01/2018 21:20:00 
 

Nearby METAR Reports

 

EGHI - Southampton Wx Centre, United Kingdom
Distance from station: NW 15mi, 24km
Updated: 19-Jan-2018 20:50:00
Clear
Clear
 Wind from WSW
Wind: WSW 6 mph , 9 km/h
Temperature: 3°C
Wind Chill: 0°C
Dew Point: 0°C
Humidity: 81%
Barometer: 1011 hPa
Summary: Clear
Visibility: greater than 7 miles , 10 km
2018/01/19 20:50 EGHI 192050Z 25005KT 220V280 CAVOK 03/00 Q1011
EGHH - Bournemouth Airport, United Kingdom
Distance from station: W 30mi, 49km
Updated: 19-Jan-2018 20:50:00
Clear
Clear
 Wind from W
Wind: W 9 mph , 15 km/h
Temperature: 2°C
Wind Chill: -2°C
Dew Point: 1°C
Humidity: 93%
Barometer: 1011 hPa
Summary: Clear
Visibility: greater than 7 miles , 10 km
2018/01/19 20:50 EGHH 192050Z 26008KT CAVOK 02/01 Q1011
EGVP - Middle Wallop Airfield, United Kingdom
Distance from station: NW 31mi, 49km
Updated: 19-Jan-2018 20:50:00
Clear
Clear
 Wind from WSW
Wind: WSW 9 mph , 15 km/h
Temperature: 2°C
Wind Chill: -2°C
Dew Point: 0°C
Humidity: 87%
Barometer: 1010 hPa
Clouds: Clear
Visibility: 6 miles , 10 km
2018/01/19 20:50 EGVP 192050Z AUTO 25008KT 9999 // NCD 02/M00 Q1010
 
EGVO - RAF Odiham, United Kingdom
Distance from station: NNE 32mi, 52km
Updated: 19-Jan-2018 20:50:00
Clear
Clear
 Wind from SW
Wind: SW 12 mph , 19 km/h
Temperature: 2°C
Wind Chill: -2°C
Dew Point: 0°C
Humidity: 87%
Barometer: 1010 hPa
Clouds: Clear
Visibility: 6 miles , 10 km
2018/01/19 20:50 EGVO 192050Z AUTO 23010KT 9999 NCD 02/00 Q1010
EGKA - Shoreham Airport, United Kingdom
Distance from station: E 37mi, 59km
Updated: 19-Jan-2018 19:20:00
NOT Current
Few Clouds
Few Clouds
 Wind from W
Wind: W 7 mph , 11 km/h
Temperature: 3°C
Wind Chill: 0°C
Dew Point: 1°C
Humidity: 87%
Barometer: 1010 hPa
Clouds: Few Clouds
Visibility: 6 miles , 10 km
Cloud details: Few Clouds 914 m
2018/01/19 19:20 EGKA 191920Z 27006KT 9999 FEW030 03/01 Q1010
EGDM - Boscombe Down, United Kingdom
Distance from station: NW 38mi, 61km
Updated: 19-Jan-2018 20:50:00
Clear
Clear
 Wind from WSW
Wind: WSW 14 mph , 22 km/h
Temperature: 2°C
Wind Chill: -3°C
Dew Point: 0°C
Humidity: 87%
Barometer: 1010 hPa
Clouds: Clear
Visibility: 6 miles , 10 km
2018/01/19 20:50 EGDM 192050Z AUTO 24012KT 9999 NCD 02/00 Q1010
 
EGLF - Farnborough, United Kingdom
Distance from station: NNE 38mi, 61km
Updated: 19-Jan-2018 20:50:00
Few Clouds
Few Clouds
 Wind from WSW
Wind: WSW 10 mph , 17 km/h
Temperature: 3°C
Wind Chill: -1°C
Dew Point: 1°C
Humidity: 87%
Barometer: 1010 hPa
Clouds: Few Clouds
Visibility: 6 miles , 10 km
Cloud details: Few Clouds 853 m
2018/01/19 20:50 EGLF 192050Z 24009KT 9999 FEW028 03/01 Q1010
EGKK - Gatwick Airport, United Kingdom
Distance from station: ENE 49mi, 78km
Updated: 19-Jan-2018 20:50:00
Clear
Clear
 Wind from SW
Wind: SW 7 mph , 11 km/h
Temperature: 3°C
Wind Chill: 0°C
Dew Point: 0°C
Humidity: 81%
Barometer: 1010 hPa
Summary: Clear
Visibility: greater than 7 miles , 10 km
2018/01/19 20:50 EGKK 192050Z 23006KT CAVOK 03/00 Q1010
EGLL - Heathrow Airport, United Kingdom
Distance from station: NNE 57mi, 91km
Updated: 19-Jan-2018 20:50:00
Clear
Clear
 Wind from WSW
Wind: WSW 13 mph , 20 km/h
Temperature: 4°C
Wind Chill: -1°C
Dew Point: 1°C
Humidity: 81%
Barometer: 1009 hPa
Clouds: Clear
Visibility: 6 miles , 10 km
2018/01/19 20:50 EGLL 192050Z AUTO 24011KT 9999 NCD 04/01 Q1009 NOSIG
 
EGUB - RAF Benson, United Kingdom
Distance from station: N 58mi, 93km
Updated: 19-Jan-2018 20:50:00
Clear
Clear
 Wind from SSW
Wind: SSW 6 mph , 9 km/h
Temperature: 0°C
Wind Chill: -3°C
Dew Point: -2°C
Humidity: 87%
Barometer: 1009 hPa
Clouds: Clear
Visibility: 6 miles , 10 km
2018/01/19 20:50 EGUB 192050Z AUTO 20005KT 9999 // NCD M00/M02 Q1009
EGWU - RAF Northolt, United Kingdom
Distance from station: NNE 62mi, 99km
Updated: 19-Jan-2018 20:50:00
Clear
Clear
 Wind from W
Wind: W 13 mph , 20 km/h
Temperature: 3°C
Wind Chill: -2°C
Dew Point: 0°C
Humidity: 81%
Barometer: 1009 hPa
Summary: Clear
Visibility: greater than 7 miles , 10 km
2018/01/19 20:50 EGWU 192050Z 26011KT CAVOK 03/00 Q1009 NOSIG
EGKB - Biggin Hill Airport, United Kingdom
Distance from station: NE 62mi, 100km
Updated: 19-Jan-2018 20:50:00
Clear
Clear
 Wind from WSW
Wind: WSW 10 mph , 17 km/h
Temperature: 3°C
Wind Chill: -1°C
Dew Point: 1°C
Humidity: 87%
Barometer: 1009 hPa
Summary: Clear
Visibility: greater than 7 miles , 10 km
2018/01/19 20:50 EGKB 192050Z 24009KT CAVOK 03/01 Q1009
 
EGDY - RNAS Yeovilton, United Kingdom
Distance from station: WNW 66mi, 107km
Updated: 19-Jan-2018 20:50:00
Few Clouds
Few Clouds
 Wind from SW
Wind: SW 7 mph , 11 km/h
Temperature: 3°C
Wind Chill: 0°C
Dew Point: 1°C
Humidity: 87%
Barometer: 1011 hPa
Clouds: Few Clouds
Visibility: 6 miles , 10 km
Cloud details: Few Clouds 1829 m
2018/01/19 20:50 EGDY 192050Z AUTO 22006KT 9999 FEW060/// 03/01 Q1011
EGUO - Colerne Airfield, United Kingdom
Distance from station: NW 67mi, 108km
Updated: 19-Nov-2017 06:50:00
NOT Current
Partly cloudy
Partly cloudy
 Wind from W
Wind: W 6 mph , 9 km/h
Temperature: 3°C
Wind Chill: 0°C
Dew Point: 3°C
Humidity: 100%
Barometer: 1023 hPa
Clouds: Partly cloudy
Visibility: 6 miles , 10 km
Cloud details: Few Clouds 1067 m
Partly cloudy 5486 m
2017/11/19 06:50 EGUO 190650Z 26005KT 9999 FEW035 SCT180 03/03 Q1023 BLU NOSIG
EGVA - RAF Fairford, United Kingdom
Distance from station: NNW 67mi, 108km
Updated: 19-Jan-2018 20:56:00
Clear
Clear
 Wind from SW
Wind: SW 10 mph , 17 km/h
Temperature: 1°C
Wind Chill: -3°C
Dew Point: -1°C
Humidity: 87%
Barometer: 1008.5 hPa
Clouds: Clear
2018/01/19 20:56 EGVA 192056Z AUTO 23009KT M M CLR 01/M01 A2978 RMK AO2 SLP092 T00131011 50001 RVRNO $
 
EGVN - RAF Brize Norton, United Kingdom
Distance from station: NNW 71mi, 114km
Updated: 19-Jan-2018 20:50:00
Clear
Clear
 Wind from W
Wind: W 7 mph , 11 km/h
Temperature: 2°C
Wind Chill: -1°C
Dew Point: -1°C
Humidity: 81%
Barometer: 1008 hPa
Summary: Clear
Visibility: greater than 7 miles , 10 km
2018/01/19 20:50 EGVN 192050Z 26006KT CAVOK 02/M01 Q1008 BLU NOSIG
EGLC - London City Airport, United Kingdom
Distance from station: NE 71mi, 115km
Updated: 19-Jan-2018 20:50:00
Clear
Clear
 Wind from WSW
Wind: WSW 12 mph , 19 km/h
Temperature: 5°C
Wind Chill: 1°C
Dew Point: 0°C
Humidity: 70%
Barometer: 1009 hPa
Clouds: Clear
Visibility: 6 miles , 10 km
2018/01/19 20:50 EGLC 192050Z AUTO 25010KT 9999 NCD 05/00 Q1009
EGGD - Bristol Airport, United Kingdom
Distance from station: WNW 80mi, 128km
Updated: 19-Jan-2018 20:50:00
Partly cloudy
Partly cloudy
 Wind from SW
Wind: SW 9 mph , 15 km/h
Temperature: 3°C
Wind Chill: -1°C
Dew Point: 1°C
Humidity: 87%
Barometer: 1009 hPa
Clouds: Partly cloudy
Visibility: 6 miles , 10 km
Cloud details: Partly cloudy 792 m
2018/01/19 20:50 EGGD 192050Z AUTO 23008KT 9999 SCT026 03/01 Q1009
 
LFRC - Cherbourg-Maupertus Airport, France
Distance from station: S 81mi, 130km
Updated: 09-Jan-2018 10:30:00
NOT Current
Mist, Overcast
Mist, Overcast
 Wind from SSE
Wind: SSE 9 mph , 15 km/h
Temperature: 5°C
Wind Chill: 2°C
Dew Point: 4°C
Humidity: 93%
Barometer: 1006 hPa
Summary: Mist
Clouds: Overcast
Visibility: 2 miles , 4 km
Cloud details: Mostly cloudy 122 m
Overcast 427 m
2018/01/09 10:30 LFRC 091030Z AUTO 15008KT 3600 BR BKN004 OVC014 05/04 Q1006 BECMG 9999 NSW BKN008
EGGW - Luton Airport, United Kingdom
Distance from station: NNE 82mi, 132km
Updated: 19-Jan-2018 20:50:00
Clear
Clear
 Wind from W
Wind: W 16 mph , 26 km/h
Temperature: 2°C
Wind Chill: -3°C
Dew Point: 0°C
Humidity: 87%
Barometer: 1007 hPa
Clouds: Clear
Visibility: 6 miles , 10 km
2018/01/19 20:50 EGGW 192050Z AUTO 26014KT 9999 NCD 02/M00 Q1007